sensor_id;sensor_type;location;lat;lon;timestamp;P1;durP1;ratioP1;P2;durP2;ratioP2
287;SDS011;128;48.770;9.198;2024-03-29T00:00:36;3.17;;;1.10;;
287;SDS011;128;48.770;9.198;2024-03-29T00:03:02;3.77;;;1.40;;
287;SDS011;128;48.770;9.198;2024-03-29T00:05:28;7.43;;;1.60;;
287;SDS011;128;48.770;9.198;2024-03-29T00:07:54;2.90;;;1.30;;
287;SDS011;128;48.770;9.198;2024-03-29T00:10:20;3.53;;;1.20;;
287;SDS011;128;48.770;9.198;2024-03-29T00:12:46;2.10;;;1.13;;
287;SDS011;128;48.770;9.198;2024-03-29T00:15:12;4.47;;;1.13;;
287;SDS011;128;48.770;9.198;2024-03-29T00:17:38;4.13;;;1.30;;
287;SDS011;128;48.770;9.198;2024-03-29T00:20:04;3.80;;;1.47;;
287;SDS011;128;48.770;9.198;2024-03-29T00:22:30;3.50;;;1.20;;
287;SDS011;128;48.770;9.198;2024-03-29T00:24:56;1.80;;;1.30;;
287;SDS011;128;48.770;9.198;2024-03-29T00:27:22;5.17;;;1.43;;
287;SDS011;128;48.770;9.198;2024-03-29T00:29:51;5.33;;;1.20;;
287;SDS011;128;48.770;9.198;2024-03-29T00:32:20;3.67;;;1.10;;
287;SDS011;128;48.770;9.198;2024-03-29T00:34:49;2.57;;;1.60;;
287;SDS011;128;48.770;9.198;2024-03-29T00:37:16;3.77;;;1.63;;
287;SDS011;128;48.770;9.198;2024-03-29T00:39:42;2.90;;;1.17;;
287;SDS011;128;48.770;9.198;2024-03-29T00:42:08;3.30;;;1.20;;
287;SDS011;128;48.770;9.198;2024-03-29T00:44:35;2.50;;;1.07;;
287;SDS011;128;48.770;9.198;2024-03-29T00:47:03;1.43;;;0.90;;
287;SDS011;128;48.770;9.198;2024-03-29T00:49:29;1.67;;;1.13;;
287;SDS011;128;48.770;9.198;2024-03-29T00:51:55;1.93;;;1.10;;
287;SDS011;128;48.770;9.198;2024-03-29T00:54:20;2.70;;;1.20;;
287;SDS011;128;48.770;9.198;2024-03-29T00:56:48;7.63;;;1.27;;
287;SDS011;128;48.770;9.198;2024-03-29T00:59:14;2.07;;;1.10;;
287;SDS011;128;48.770;9.198;2024-03-29T01:01:40;4.57;;;1.77;;
287;SDS011;128;48.770;9.198;2024-03-29T01:04:06;4.53;;;1.37;;
287;SDS011;128;48.770;9.198;2024-03-29T01:06:32;4.47;;;1.13;;
287;SDS011;128;48.770;9.198;2024-03-29T01:08:58;2.50;;;1.00;;
287;SDS011;128;48.770;9.198;2024-03-29T01:11:24;2.13;;;1.20;;
287;SDS011;128;48.770;9.198;2024-03-29T01:13:50;2.37;;;1.17;;
287;SDS011;128;48.770;9.198;2024-03-29T01:16:16;2.90;;;1.10;;
287;SDS011;128;48.770;9.198;2024-03-29T01:18:42;5.20;;;1.30;;
287;SDS011;128;48.770;9.198;2024-03-29T01:21:08;1.63;;;0.97;;
287;SDS011;128;48.770;9.198;2024-03-29T01:23:34;1.67;;;1.00;;
287;SDS011;128;48.770;9.198;2024-03-29T01:26:02;2.00;;;1.00;;
287;SDS011;128;48.770;9.198;2024-03-29T01:28:29;2.53;;;1.33;;
287;SDS011;128;48.770;9.198;2024-03-29T01:30:54;2.43;;;1.20;;
287;SDS011;128;48.770;9.198;2024-03-29T01:33:21;1.07;;;1.00;;
287;SDS011;128;48.770;9.198;2024-03-29T01:35:47;3.03;;;1.00;;
287;SDS011;128;48.770;9.198;2024-03-29T01:38:14;1.53;;;0.90;;
287;SDS011;128;48.770;9.198;2024-03-29T01:40:40;2.27;;;1.20;;
287;SDS011;128;48.770;9.198;2024-03-29T01:43:06;5.10;;;1.00;;
287;SDS011;128;48.770;9.198;2024-03-29T01:45:34;2.07;;;1.00;;
287;SDS011;128;48.770;9.198;2024-03-29T01:48:00;1.40;;;0.87;;
287;SDS011;128;48.770;9.198;2024-03-29T01:50:26;2.50;;;1.23;;
287;SDS011;128;48.770;9.198;2024-03-29T01:52:52;2.33;;;1.20;;
287;SDS011;128;48.770;9.198;2024-03-29T01:55:18;1.93;;;1.07;;
287;SDS011;128;48.770;9.198;2024-03-29T01:57:44;2.17;;;1.27;;
287;SDS011;128;48.770;9.198;2024-03-29T02:00:10;6.87;;;1.00;;
287;SDS011;128;48.770;9.198;2024-03-29T02:02:36;2.13;;;0.93;;
287;SDS011;128;48.770;9.198;2024-03-29T02:05:03;2.63;;;1.03;;
287;SDS011;128;48.770;9.198;2024-03-29T02:07:29;3.03;;;1.37;;
287;SDS011;128;48.770;9.198;2024-03-29T02:09:55;2.03;;;1.10;;
287;SDS011;128;48.770;9.198;2024-03-29T02:12:21;2.13;;;1.00;;
287;SDS011;128;48.770;9.198;2024-03-29T02:14:47;2.30;;;0.90;;
287;SDS011;128;48.770;9.198;2024-03-29T02:17:13;1.47;;;1.00;;
287;SDS011;128;48.770;9.198;2024-03-29T02:19:39;1.33;;;0.90;;
287;SDS011;128;48.770;9.198;2024-03-29T02:22:05;1.60;;;0.80;;
287;SDS011;128;48.770;9.198;2024-03-29T02:24:33;2.50;;;1.10;;
287;SDS011;128;48.770;9.198;2024-03-29T02:27:00;2.10;;;1.13;;
287;SDS011;128;48.770;9.198;2024-03-29T02:29:26;2.40;;;1.00;;
287;SDS011;128;48.770;9.198;2024-03-29T02:31:52;1.70;;;1.00;;
287;SDS011;128;48.770;9.198;2024-03-29T02:34:18;3.30;;;0.90;;
287;SDS011;128;48.770;9.198;2024-03-29T02:36:44;2.17;;;0.90;;
287;SDS011;128;48.770;9.198;2024-03-29T02:39:10;1.40;;;0.90;;
287;SDS011;128;48.770;9.198;2024-03-29T02:41:36;2.40;;;0.90;;
287;SDS011;128;48.770;9.198;2024-03-29T02:44:02;2.10;;;1.20;;
287;SDS011;128;48.770;9.198;2024-03-29T02:46:28;1.43;;;0.67;;
287;SDS011;128;48.770;9.198;2024-03-29T02:48:54;2.80;;;1.50;;
287;SDS011;128;48.770;9.198;2024-03-29T02:51:20;2.50;;;1.00;;
287;SDS011;128;48.770;9.198;2024-03-29T02:53:46;3.43;;;0.87;;
287;SDS011;128;48.770;9.198;2024-03-29T02:56:11;2.17;;;0.90;;
287;SDS011;128;48.770;9.198;2024-03-29T02:58:39;1.30;;;0.73;;
287;SDS011;128;48.770;9.198;2024-03-29T03:01:08;1.47;;;0.87;;
287;SDS011;128;48.770;9.198;2024-03-29T03:03:34;3.03;;;1.03;;
287;SDS011;128;48.770;9.198;2024-03-29T03:06:00;1.43;;;0.80;;
287;SDS011;128;48.770;9.198;2024-03-29T03:08:27;2.33;;;0.90;;
287;SDS011;128;48.770;9.198;2024-03-29T03:11:12;2.13;;;0.97;;
287;SDS011;128;48.770;9.198;2024-03-29T03:13:38;4.10;;;1.00;;
287;SDS011;128;48.770;9.198;2024-03-29T03:16:04;4.30;;;0.87;;
287;SDS011;128;48.770;9.198;2024-03-29T03:18:30;1.53;;;0.93;;
287;SDS011;128;48.770;9.198;2024-03-29T03:20:56;1.50;;;0.80;;
287;SDS011;128;48.770;9.198;2024-03-29T03:23:25;1.50;;;0.93;;
287;SDS011;128;48.770;9.198;2024-03-29T03:26:00;2.33;;;1.00;;
287;SDS011;128;48.770;9.198;2024-03-29T03:28:28;1.73;;;1.00;;
287;SDS011;128;48.770;9.198;2024-03-29T03:30:54;4.60;;;0.80;;
287;SDS011;128;48.770;9.198;2024-03-29T03:33:21;1.10;;;0.60;;
287;SDS011;128;48.770;9.198;2024-03-29T03:35:47;1.60;;;0.90;;
287;SDS011;128;48.770;9.198;2024-03-29T03:38:13;3.07;;;1.40;;
287;SDS011;128;48.770;9.198;2024-03-29T03:40:40;1.73;;;0.93;;
287;SDS011;128;48.770;9.198;2024-03-29T03:43:06;1.27;;;0.90;;
287;SDS011;128;48.770;9.198;2024-03-29T03:48:02;1.20;;;0.80;;
287;SDS011;128;48.770;9.198;2024-03-29T03:50:28;1.63;;;0.80;;
287;SDS011;128;48.770;9.198;2024-03-29T03:52:54;1.20;;;0.60;;
287;SDS011;128;48.770;9.198;2024-03-29T03:55:20;0.90;;;0.60;;
287;SDS011;128;48.770;9.198;2024-03-29T03:57:45;1.50;;;0.80;;
287;SDS011;128;48.770;9.198;2024-03-29T04:00:12;2.80;;;0.90;;
287;SDS011;128;48.770;9.198;2024-03-29T04:02:38;1.57;;;0.90;;
287;SDS011;128;48.770;9.198;2024-03-29T04:05:04;2.33;;;0.90;;
287;SDS011;128;48.770;9.198;2024-03-29T04:07:30;1.50;;;0.80;;
287;SDS011;128;48.770;9.198;2024-03-29T04:09:56;1.77;;;0.80;;
287;SDS011;128;48.770;9.198;2024-03-29T04:12:22;1.63;;;0.70;;
287;SDS011;128;48.770;9.198;2024-03-29T04:14:48;1.23;;;0.60;;
287;SDS011;128;48.770;9.198;2024-03-29T04:17:14;0.90;;;0.63;;
287;SDS011;128;48.770;9.198;2024-03-29T04:19:40;2.63;;;1.10;;
287;SDS011;128;48.770;9.198;2024-03-29T04:22:06;1.70;;;0.97;;
287;SDS011;128;48.770;9.198;2024-03-29T04:24:32;1.80;;;1.40;;
287;SDS011;128;48.770;9.198;2024-03-29T04:26:58;3.27;;;1.47;;
287;SDS011;128;48.770;9.198;2024-03-29T04:29:24;1.83;;;1.17;;
287;SDS011;128;48.770;9.198;2024-03-29T04:31:50;1.80;;;0.90;;
287;SDS011;128;48.770;9.198;2024-03-29T04:34:16;1.10;;;0.70;;
287;SDS011;128;48.770;9.198;2024-03-29T04:36:42;2.13;;;1.00;;
287;SDS011;128;48.770;9.198;2024-03-29T04:39:08;3.67;;;0.70;;
287;SDS011;128;48.770;9.198;2024-03-29T04:41:34;1.70;;;0.90;;
287;SDS011;128;48.770;9.198;2024-03-29T04:44:00;1.67;;;0.80;;
287;SDS011;128;48.770;9.198;2024-03-29T04:46:29;1.20;;;0.60;;
287;SDS011;128;48.770;9.198;2024-03-29T04:48:55;1.50;;;0.83;;
287;SDS011;128;48.770;9.198;2024-03-29T04:51:21;2.80;;;1.13;;
287;SDS011;128;48.770;9.198;2024-03-29T04:53:47;1.43;;;0.80;;
287;SDS011;128;48.770;9.198;2024-03-29T04:56:13;1.57;;;1.10;;
287;SDS011;128;48.770;9.198;2024-03-29T04:58:39;1.13;;;0.87;;
287;SDS011;128;48.770;9.198;2024-03-29T05:01:05;1.60;;;0.87;;
287;SDS011;128;48.770;9.198;2024-03-29T05:03:32;4.10;;;1.50;;
287;SDS011;128;48.770;9.198;2024-03-29T05:05:57;1.00;;;0.70;;
287;SDS011;128;48.770;9.198;2024-03-29T05:08:23;1.97;;;1.40;;
287;SDS011;128;48.770;9.198;2024-03-29T05:10:50;1.70;;;1.00;;
287;SDS011;128;48.770;9.198;2024-03-29T05:13:16;2.00;;;0.90;;
287;SDS011;128;48.770;9.198;2024-03-29T05:15:43;1.50;;;0.90;;
287;SDS011;128;48.770;9.198;2024-03-29T05:18:10;3.77;;;1.10;;
287;SDS011;128;48.770;9.198;2024-03-29T05:20:35;1.37;;;0.80;;
287;SDS011;128;48.770;9.198;2024-03-29T05:23:01;2.17;;;1.20;;
287;SDS011;128;48.770;9.198;2024-03-29T05:25:27;1.90;;;0.87;;
287;SDS011;128;48.770;9.198;2024-03-29T05:27:53;1.33;;;0.93;;
287;SDS011;128;48.770;9.198;2024-03-29T05:30:19;1.97;;;0.80;;
287;SDS011;128;48.770;9.198;2024-03-29T05:32:45;1.87;;;0.97;;
287;SDS011;128;48.770;9.198;2024-03-29T05:35:11;1.90;;;0.80;;
287;SDS011;128;48.770;9.198;2024-03-29T05:37:38;1.87;;;0.70;;
287;SDS011;128;48.770;9.198;2024-03-29T05:40:04;0.80;;;0.57;;
287;SDS011;128;48.770;9.198;2024-03-29T05:42:32;1.30;;;0.70;;
287;SDS011;128;48.770;9.198;2024-03-29T05:44:59;1.47;;;0.80;;
287;SDS011;128;48.770;9.198;2024-03-29T05:47:25;1.20;;;0.70;;
287;SDS011;128;48.770;9.198;2024-03-29T05:49:51;1.83;;;0.80;;
287;SDS011;128;48.770;9.198;2024-03-29T05:52:17;0.87;;;0.57;;
287;SDS011;128;48.770;9.198;2024-03-29T05:54:44;3.83;;;1.03;;
287;SDS011;128;48.770;9.198;2024-03-29T05:57:10;1.40;;;0.80;;
287;SDS011;128;48.770;9.198;2024-03-29T05:59:36;1.67;;;0.70;;
287;SDS011;128;48.770;9.198;2024-03-29T06:02:03;1.73;;;0.90;;
287;SDS011;128;48.770;9.198;2024-03-29T06:04:29;3.40;;;1.10;;
287;SDS011;128;48.770;9.198;2024-03-29T06:06:58;1.10;;;0.60;;
287;SDS011;128;48.770;9.198;2024-03-29T06:09:24;3.97;;;0.70;;
287;SDS011;128;48.770;9.198;2024-03-29T06:11:51;1.30;;;0.80;;
287;SDS011;128;48.770;9.198;2024-03-29T06:14:17;4.13;;;0.80;;
287;SDS011;128;48.770;9.198;2024-03-29T06:17:02;4.93;;;0.97;;
287;SDS011;128;48.770;9.198;2024-03-29T06:19:47;2.10;;;0.93;;
287;SDS011;128;48.770;9.198;2024-03-29T06:22:13;1.83;;;0.70;;
287;SDS011;128;48.770;9.198;2024-03-29T06:24:39;1.40;;;0.90;;
287;SDS011;128;48.770;9.198;2024-03-29T06:27:08;1.20;;;0.90;;
287;SDS011;128;48.770;9.198;2024-03-29T06:29:34;2.30;;;0.90;;
287;SDS011;128;48.770;9.198;2024-03-29T06:32:00;1.20;;;0.70;;
287;SDS011;128;48.770;9.198;2024-03-29T06:34:26;1.07;;;0.80;;
287;SDS011;128;48.770;9.198;2024-03-29T06:36:54;2.33;;;0.90;;
287;SDS011;128;48.770;9.198;2024-03-29T06:39:20;2.13;;;0.77;;
287;SDS011;128;48.770;9.198;2024-03-29T06:41:46;2.57;;;1.03;;
287;SDS011;128;48.770;9.198;2024-03-29T06:44:12;3.90;;;1.13;;
287;SDS011;128;48.770;9.198;2024-03-29T06:46:38;2.07;;;0.70;;
287;SDS011;128;48.770;9.198;2024-03-29T06:49:04;1.27;;;0.80;;
287;SDS011;128;48.770;9.198;2024-03-29T06:51:31;4.80;;;0.87;;
287;SDS011;128;48.770;9.198;2024-03-29T06:53:57;1.50;;;0.80;;
287;SDS011;128;48.770;9.198;2024-03-29T06:56:22;1.50;;;0.80;;
287;SDS011;128;48.770;9.198;2024-03-29T06:58:48;1.73;;;0.90;;
287;SDS011;128;48.770;9.198;2024-03-29T07:01:15;0.90;;;0.60;;
287;SDS011;128;48.770;9.198;2024-03-29T07:03:41;1.67;;;0.80;;
287;SDS011;128;48.770;9.198;2024-03-29T07:06:07;1.20;;;0.70;;
287;SDS011;128;48.770;9.198;2024-03-29T07:08:33;1.73;;;0.90;;
287;SDS011;128;48.770;9.198;2024-03-29T07:10:59;1.30;;;0.80;;
287;SDS011;128;48.770;9.198;2024-03-29T07:13:25;1.37;;;0.90;;
287;SDS011;128;48.770;9.198;2024-03-29T07:15:51;7.17;;;1.70;;
287;SDS011;128;48.770;9.198;2024-03-29T07:18:17;1.97;;;1.23;;
287;SDS011;128;48.770;9.198;2024-03-29T07:20:43;4.10;;;1.57;;
287;SDS011;128;48.770;9.198;2024-03-29T07:23:09;2.90;;;1.10;;
287;SDS011;128;48.770;9.198;2024-03-29T07:25:36;3.80;;;1.47;;
287;SDS011;128;48.770;9.198;2024-03-29T07:28:02;10.50;;;4.13;;
287;SDS011;128;48.770;9.198;2024-03-29T07:30:28;3.37;;;1.80;;
287;SDS011;128;48.770;9.198;2024-03-29T07:32:54;12.60;;;4.77;;
287;SDS011;128;48.770;9.198;2024-03-29T07:35:20;5.47;;;1.70;;
287;SDS011;128;48.770;9.198;2024-03-29T07:37:46;5.83;;;1.73;;
287;SDS011;128;48.770;9.198;2024-03-29T07:40:14;7.90;;;2.27;;
287;SDS011;128;48.770;9.198;2024-03-29T07:42:40;4.87;;;1.83;;
287;SDS011;128;48.770;9.198;2024-03-29T07:45:06;5.10;;;1.90;;
287;SDS011;128;48.770;9.198;2024-03-29T07:47:32;5.00;;;1.63;;
287;SDS011;128;48.770;9.198;2024-03-29T07:49:58;5.00;;;2.00;;
287;SDS011;128;48.770;9.198;2024-03-29T07:52:24;6.03;;;1.60;;
287;SDS011;128;48.770;9.198;2024-03-29T07:54:50;4.07;;;1.50;;
287;SDS011;128;48.770;9.198;2024-03-29T07:57:16;2.60;;;1.40;;
287;SDS011;128;48.770;9.198;2024-03-29T07:59:42;5.20;;;1.40;;
287;SDS011;128;48.770;9.198;2024-03-29T08:02:08;6.97;;;1.10;;
287;SDS011;128;48.770;9.198;2024-03-29T08:04:34;3.03;;;1.30;;
287;SDS011;128;48.770;9.198;2024-03-29T08:07:00;3.30;;;1.00;;
287;SDS011;128;48.770;9.198;2024-03-29T08:09:26;3.07;;;1.43;;
287;SDS011;128;48.770;9.198;2024-03-29T08:11:52;3.83;;;1.20;;
287;SDS011;128;48.770;9.198;2024-03-29T08:14:18;1.73;;;1.00;;
287;SDS011;128;48.770;9.198;2024-03-29T08:16:44;1.70;;;1.07;;
287;SDS011;128;48.770;9.198;2024-03-29T08:19:10;2.57;;;1.40;;
287;SDS011;128;48.770;9.198;2024-03-29T08:21:36;4.43;;;1.50;;
287;SDS011;128;48.770;9.198;2024-03-29T08:24:02;3.40;;;1.40;;
287;SDS011;128;48.770;9.198;2024-03-29T08:26:29;2.90;;;1.17;;
287;SDS011;128;48.770;9.198;2024-03-29T08:28:55;3.10;;;1.30;;
287;SDS011;128;48.770;9.198;2024-03-29T08:31:21;2.23;;;1.17;;
287;SDS011;128;48.770;9.198;2024-03-29T08:33:47;2.47;;;1.10;;
287;SDS011;128;48.770;9.198;2024-03-29T08:36:14;1.80;;;0.90;;
287;SDS011;128;48.770;9.198;2024-03-29T08:38:40;1.37;;;0.90;;
287;SDS011;128;48.770;9.198;2024-03-29T08:41:08;3.20;;;1.30;;
287;SDS011;128;48.770;9.198;2024-03-29T08:43:34;1.73;;;1.00;;
287;SDS011;128;48.770;9.198;2024-03-29T08:46:00;1.80;;;1.10;;
287;SDS011;128;48.770;9.198;2024-03-29T08:48:26;2.70;;;1.00;;
287;SDS011;128;48.770;9.198;2024-03-29T08:50:52;2.33;;;1.00;;
287;SDS011;128;48.770;9.198;2024-03-29T08:53:18;3.47;;;1.13;;
287;SDS011;128;48.770;9.198;2024-03-29T08:55:45;3.73;;;1.17;;
287;SDS011;128;48.770;9.198;2024-03-29T08:58:11;3.73;;;1.10;;
287;SDS011;128;48.770;9.198;2024-03-29T09:00:37;2.47;;;1.10;;
287;SDS011;128;48.770;9.198;2024-03-29T09:03:03;2.03;;;1.30;;
287;SDS011;128;48.770;9.198;2024-03-29T09:05:29;2.70;;;1.00;;
287;SDS011;128;48.770;9.198;2024-03-29T09:07:55;4.13;;;1.20;;
287;SDS011;128;48.770;9.198;2024-03-29T09:10:22;3.60;;;1.30;;
287;SDS011;128;48.770;9.198;2024-03-29T09:12:49;3.93;;;2.00;;
287;SDS011;128;48.770;9.198;2024-03-29T09:15:15;2.17;;;1.10;;
287;SDS011;128;48.770;9.198;2024-03-29T09:17:44;2.90;;;1.47;;
287;SDS011;128;48.770;9.198;2024-03-29T09:20:11;2.53;;;1.30;;
287;SDS011;128;48.770;9.198;2024-03-29T09:22:38;4.73;;;1.87;;
287;SDS011;128;48.770;9.198;2024-03-29T09:25:04;2.67;;;1.83;;
287;SDS011;128;48.770;9.198;2024-03-29T09:27:30;2.00;;;1.27;;
287;SDS011;128;48.770;9.198;2024-03-29T09:30:01;5.43;;;1.47;;
287;SDS011;128;48.770;9.198;2024-03-29T09:32:27;4.80;;;1.50;;
287;SDS011;128;48.770;9.198;2024-03-29T09:34:53;2.10;;;1.40;;
287;SDS011;128;48.770;9.198;2024-03-29T09:37:19;2.20;;;1.13;;
287;SDS011;128;48.770;9.198;2024-03-29T09:39:45;2.87;;;1.70;;
287;SDS011;128;48.770;9.198;2024-03-29T09:42:13;2.53;;;1.10;;
287;SDS011;128;48.770;9.198;2024-03-29T09:44:41;3.07;;;1.40;;
287;SDS011;128;48.770;9.198;2024-03-29T09:47:09;1.97;;;1.20;;
287;SDS011;128;48.770;9.198;2024-03-29T09:49:36;4.33;;;1.20;;
287;SDS011;128;48.770;9.198;2024-03-29T09:52:02;7.10;;;1.93;;
287;SDS011;128;48.770;9.198;2024-03-29T09:54:29;5.00;;;2.33;;
287;SDS011;128;48.770;9.198;2024-03-29T09:56:55;5.67;;;2.90;;
287;SDS011;128;48.770;9.198;2024-03-29T09:59:22;9.33;;;2.43;;
287;SDS011;128;48.770;9.198;2024-03-29T10:01:48;5.87;;;2.50;;
287;SDS011;128;48.770;9.198;2024-03-29T10:04:13;6.80;;;2.67;;
287;SDS011;128;48.770;9.198;2024-03-29T10:06:40;3.53;;;2.23;;
287;SDS011;128;48.770;9.198;2024-03-29T10:09:08;5.13;;;2.30;;
287;SDS011;128;48.770;9.198;2024-03-29T10:11:35;8.63;;;3.87;;
287;SDS011;128;48.770;9.198;2024-03-29T10:14:01;4.77;;;2.07;;
287;SDS011;128;48.770;9.198;2024-03-29T10:16:29;4.53;;;2.87;;
287;SDS011;128;48.770;9.198;2024-03-29T10:18:57;4.50;;;2.00;;
287;SDS011;128;48.770;9.198;2024-03-29T10:21:26;4.93;;;2.40;;
287;SDS011;128;48.770;9.198;2024-03-29T10:23:52;5.90;;;1.93;;
287;SDS011;128;48.770;9.198;2024-03-29T10:26:19;3.87;;;1.60;;
287;SDS011;128;48.770;9.198;2024-03-29T10:28:46;5.40;;;1.47;;
287;SDS011;128;48.770;9.198;2024-03-29T10:31:12;2.80;;;1.40;;
287;SDS011;128;48.770;9.198;2024-03-29T10:33:39;6.37;;;1.67;;
287;SDS011;128;48.770;9.198;2024-03-29T10:36:05;4.80;;;2.00;;
287;SDS011;128;48.770;9.198;2024-03-29T10:38:31;4.00;;;2.13;;
287;SDS011;128;48.770;9.198;2024-03-29T10:40:57;3.30;;;2.17;;
287;SDS011;128;48.770;9.198;2024-03-29T10:43:23;6.77;;;1.90;;
287;SDS011;128;48.770;9.198;2024-03-29T10:45:50;3.20;;;2.03;;
287;SDS011;128;48.770;9.198;2024-03-29T10:48:19;3.17;;;1.73;;
287;SDS011;128;48.770;9.198;2024-03-29T10:50:46;6.10;;;1.93;;
287;SDS011;128;48.770;9.198;2024-03-29T10:53:13;3.70;;;1.80;;
287;SDS011;128;48.770;9.198;2024-03-29T10:55:40;4.37;;;2.00;;
287;SDS011;128;48.770;9.198;2024-03-29T10:58:09;3.60;;;1.90;;
287;SDS011;128;48.770;9.198;2024-03-29T11:00:40;8.43;;;3.57;;
287;SDS011;128;48.770;9.198;2024-03-29T11:05:33;4.57;;;1.80;;
287;SDS011;128;48.770;9.198;2024-03-29T11:08:01;7.57;;;2.00;;
287;SDS011;128;48.770;9.198;2024-03-29T11:10:41;3.50;;;1.57;;
287;SDS011;128;48.770;9.198;2024-03-29T11:13:31;4.10;;;1.87;;
287;SDS011;128;48.770;9.198;2024-03-29T11:15:59;4.70;;;1.80;;
287;SDS011;128;48.770;9.198;2024-03-29T11:18:25;3.53;;;1.77;;
287;SDS011;128;48.770;9.198;2024-03-29T11:20:52;5.30;;;1.63;;
287;SDS011;128;48.770;9.198;2024-03-29T11:23:19;4.97;;;1.50;;
287;SDS011;128;48.770;9.198;2024-03-29T11:25:46;4.80;;;2.10;;
287;SDS011;128;48.770;9.198;2024-03-29T11:28:12;4.60;;;2.07;;
287;SDS011;128;48.770;9.198;2024-03-29T11:30:39;3.67;;;2.30;;
287;SDS011;128;48.770;9.198;2024-03-29T11:33:05;2.37;;;1.23;;
287;SDS011;128;48.770;9.198;2024-03-29T11:35:31;11.70;;;1.90;;
287;SDS011;128;48.770;9.198;2024-03-29T11:38:01;5.23;;;1.80;;
287;SDS011;128;48.770;9.198;2024-03-29T11:40:30;4.70;;;1.83;;
287;SDS011;128;48.770;9.198;2024-03-29T11:42:56;5.60;;;2.40;;
287;SDS011;128;48.770;9.198;2024-03-29T11:45:25;4.20;;;1.80;;
287;SDS011;128;48.770;9.198;2024-03-29T11:47:55;3.43;;;1.70;;
287;SDS011;128;48.770;9.198;2024-03-29T11:50:22;4.23;;;1.80;;
287;SDS011;128;48.770;9.198;2024-03-29T11:52:48;5.20;;;2.20;;
287;SDS011;128;48.770;9.198;2024-03-29T11:55:14;10.10;;;1.80;;
287;SDS011;128;48.770;9.198;2024-03-29T11:57:40;2.60;;;1.30;;
287;SDS011;128;48.770;9.198;2024-03-29T12:00:06;3.37;;;1.60;;
287;SDS011;128;48.770;9.198;2024-03-29T12:02:34;4.20;;;1.73;;
287;SDS011;128;48.770;9.198;2024-03-29T12:05:04;5.40;;;1.17;;
287;SDS011;128;48.770;9.198;2024-03-29T12:07:30;4.23;;;1.73;;
287;SDS011;128;48.770;9.198;2024-03-29T12:09:56;4.80;;;1.47;;
287;SDS011;128;48.770;9.198;2024-03-29T12:12:22;4.53;;;1.30;;
287;SDS011;128;48.770;9.198;2024-03-29T12:14:48;2.03;;;1.40;;
287;SDS011;128;48.770;9.198;2024-03-29T12:17:15;4.27;;;1.93;;
287;SDS011;128;48.770;9.198;2024-03-29T12:19:41;16.73;;;3.53;;
287;SDS011;128;48.770;9.198;2024-03-29T12:22:08;4.53;;;2.10;;
287;SDS011;128;48.770;9.198;2024-03-29T12:24:34;3.77;;;2.60;;
287;SDS011;128;48.770;9.198;2024-03-29T12:27:00;4.20;;;1.80;;
287;SDS011;128;48.770;9.198;2024-03-29T12:29:27;2.83;;;1.70;;
287;SDS011;128;48.770;9.198;2024-03-29T12:32:02;10.10;;;2.73;;
287;SDS011;128;48.770;9.198;2024-03-29T12:34:29;3.33;;;1.97;;
287;SDS011;128;48.770;9.198;2024-03-29T12:36:57;2.83;;;1.67;;
287;SDS011;128;48.770;9.198;2024-03-29T12:39:23;2.90;;;1.80;;
287;SDS011;128;48.770;9.198;2024-03-29T12:41:51;3.70;;;1.80;;
287;SDS011;128;48.770;9.198;2024-03-29T12:44:21;5.13;;;2.23;;
287;SDS011;128;48.770;9.198;2024-03-29T12:46:47;3.13;;;1.87;;
287;SDS011;128;48.770;9.198;2024-03-29T12:49:13;2.80;;;1.60;;
287;SDS011;128;48.770;9.198;2024-03-29T12:51:39;3.37;;;1.53;;
287;SDS011;128;48.770;9.198;2024-03-29T12:54:06;2.80;;;1.40;;
287;SDS011;128;48.770;9.198;2024-03-29T12:56:32;3.27;;;1.53;;
287;SDS011;128;48.770;9.198;2024-03-29T12:58:58;3.63;;;1.47;;
287;SDS011;128;48.770;9.198;2024-03-29T13:01:24;2.30;;;1.20;;
287;SDS011;128;48.770;9.198;2024-03-29T13:03:50;4.57;;;1.43;;
287;SDS011;128;48.770;9.198;2024-03-29T13:06:16;2.33;;;1.40;;
287;SDS011;128;48.770;9.198;2024-03-29T13:08:43;2.90;;;1.87;;
287;SDS011;128;48.770;9.198;2024-03-29T13:11:09;3.10;;;1.63;;
287;SDS011;128;48.770;9.198;2024-03-29T13:13:35;4.03;;;1.60;;
287;SDS011;128;48.770;9.198;2024-03-29T13:16:01;4.73;;;1.40;;
287;SDS011;128;48.770;9.198;2024-03-29T13:18:27;1.63;;;1.07;;
287;SDS011;128;48.770;9.198;2024-03-29T13:20:53;2.63;;;1.23;;
287;SDS011;128;48.770;9.198;2024-03-29T13:23:21;3.40;;;1.20;;
287;SDS011;128;48.770;9.198;2024-03-29T13:25:47;3.50;;;1.13;;
287;SDS011;128;48.770;9.198;2024-03-29T13:28:13;3.20;;;0.80;;
287;SDS011;128;48.770;9.198;2024-03-29T13:30:39;1.60;;;0.90;;
287;SDS011;128;48.770;9.198;2024-03-29T13:33:08;5.43;;;1.30;;
287;SDS011;128;48.770;9.198;2024-03-29T13:35:35;2.30;;;0.97;;
287;SDS011;128;48.770;9.198;2024-03-29T13:38:01;1.43;;;0.80;;
287;SDS011;128;48.770;9.198;2024-03-29T13:40:27;1.50;;;1.07;;
287;SDS011;128;48.770;9.198;2024-03-29T13:42:54;1.93;;;1.00;;
287;SDS011;128;48.770;9.198;2024-03-29T13:45:20;2.37;;;1.10;;
287;SDS011;128;48.770;9.198;2024-03-29T13:47:46;3.87;;;1.20;;
287;SDS011;128;48.770;9.198;2024-03-29T13:50:12;1.60;;;1.03;;
287;SDS011;128;48.770;9.198;2024-03-29T13:52:40;4.10;;;1.63;;
287;SDS011;128;48.770;9.198;2024-03-29T13:55:06;1.33;;;0.93;;
287;SDS011;128;48.770;9.198;2024-03-29T13:57:32;1.67;;;1.00;;
287;SDS011;128;48.770;9.198;2024-03-29T13:59:58;4.33;;;1.47;;
287;SDS011;128;48.770;9.198;2024-03-29T14:02:24;2.10;;;1.10;;
287;SDS011;128;48.770;9.198;2024-03-29T14:04:52;2.37;;;1.00;;
287;SDS011;128;48.770;9.198;2024-03-29T14:07:18;3.40;;;1.53;;
287;SDS011;128;48.770;9.198;2024-03-29T14:09:44;2.93;;;1.77;;
287;SDS011;128;48.770;9.198;2024-03-29T14:12:10;1.60;;;0.90;;
287;SDS011;128;48.770;9.198;2024-03-29T14:14:37;3.30;;;1.00;;
287;SDS011;128;48.770;9.198;2024-03-29T14:17:03;5.47;;;0.80;;
287;SDS011;128;48.770;9.198;2024-03-29T14:19:31;2.07;;;0.93;;
287;SDS011;128;48.770;9.198;2024-03-29T14:21:58;2.70;;;1.43;;
287;SDS011;128;48.770;9.198;2024-03-29T14:24:24;1.87;;;0.90;;
287;SDS011;128;48.770;9.198;2024-03-29T14:26:51;1.67;;;1.20;;
287;SDS011;128;48.770;9.198;2024-03-29T14:29:17;1.80;;;0.97;;
287;SDS011;128;48.770;9.198;2024-03-29T14:31:46;3.13;;;1.10;;
287;SDS011;128;48.770;9.198;2024-03-29T14:34:12;2.20;;;1.00;;
287;SDS011;128;48.770;9.198;2024-03-29T14:36:38;4.10;;;1.43;;
287;SDS011;128;48.770;9.198;2024-03-29T14:39:04;2.80;;;0.93;;
287;SDS011;128;48.770;9.198;2024-03-29T14:41:31;5.93;;;1.73;;
287;SDS011;128;48.770;9.198;2024-03-29T14:43:57;2.43;;;1.03;;
287;SDS011;128;48.770;9.198;2024-03-29T14:46:23;1.30;;;0.80;;
287;SDS011;128;48.770;9.198;2024-03-29T14:48:50;1.30;;;0.90;;
287;SDS011;128;48.770;9.198;2024-03-29T14:51:16;3.23;;;1.10;;
287;SDS011;128;48.770;9.198;2024-03-29T14:53:43;2.83;;;1.20;;
287;SDS011;128;48.770;9.198;2024-03-29T14:56:14;2.30;;;1.17;;
287;SDS011;128;48.770;9.198;2024-03-29T14:58:40;3.57;;;1.23;;
287;SDS011;128;48.770;9.198;2024-03-29T15:01:06;2.13;;;1.23;;
287;SDS011;128;48.770;9.198;2024-03-29T15:03:32;3.00;;;1.47;;
287;SDS011;128;48.770;9.198;2024-03-29T15:05:57;2.60;;;1.07;;
287;SDS011;128;48.770;9.198;2024-03-29T15:08:23;2.87;;;1.43;;
287;SDS011;128;48.770;9.198;2024-03-29T15:11:23;2.90;;;1.30;;
287;SDS011;128;48.770;9.198;2024-03-29T15:13:42;1.97;;;1.20;;
287;SDS011;128;48.770;9.198;2024-03-29T15:16:08;2.60;;;1.10;;
287;SDS011;128;48.770;9.198;2024-03-29T15:18:33;7.40;;;1.47;;
287;SDS011;128;48.770;9.198;2024-03-29T15:21:00;2.33;;;1.30;;
287;SDS011;128;48.770;9.198;2024-03-29T15:23:27;3.63;;;1.30;;
287;SDS011;128;48.770;9.198;2024-03-29T15:25:54;2.73;;;1.57;;
287;SDS011;128;48.770;9.198;2024-03-29T15:28:21;5.90;;;1.40;;
287;SDS011;128;48.770;9.198;2024-03-29T15:31:13;4.43;;;1.20;;
287;SDS011;128;48.770;9.198;2024-03-29T15:33:41;2.17;;;1.20;;
287;SDS011;128;48.770;9.198;2024-03-29T15:36:07;4.10;;;1.30;;
287;SDS011;128;48.770;9.198;2024-03-29T15:38:34;2.90;;;1.17;;
287;SDS011;128;48.770;9.198;2024-03-29T15:41:00;1.80;;;1.07;;
287;SDS011;128;48.770;9.198;2024-03-29T15:43:26;2.93;;;1.50;;
287;SDS011;128;48.770;9.198;2024-03-29T15:45:53;3.50;;;1.57;;